createdAt,value
2018-08-11T00:01:30.242Z,18.70
2018-08-11T00:03:58.745Z,18.70
2018-08-11T00:06:27.286Z,18.80
2018-08-11T00:08:56.602Z,18.70
2018-08-11T00:11:25.051Z,18.60
2018-08-11T00:13:53.486Z,18.50
2018-08-11T00:16:21.917Z,18.50
2018-08-11T00:18:50.365Z,18.60
2018-08-11T00:21:18.909Z,18.60
2018-08-11T00:23:47.395Z,18.60
2018-08-11T00:26:15.857Z,18.70
2018-08-11T00:28:44.294Z,18.70
2018-08-11T00:31:12.674Z,18.70
2018-08-11T00:33:41.152Z,18.60
2018-08-11T00:36:09.588Z,18.60
2018-08-11T00:38:38.033Z,18.50
2018-08-11T00:41:06.520Z,18.40
2018-08-11T00:43:35.020Z,18.40
2018-08-11T00:46:03.520Z,18.40
2018-08-11T00:48:31.938Z,18.40
2018-08-11T00:51:01.462Z,18.30
2018-08-11T00:53:29.922Z,18.40
2018-08-11T00:55:58.337Z,18.40
2018-08-11T00:58:26.725Z,18.40
2018-08-11T01:00:55.233Z,18.40
2018-08-11T01:03:23.666Z,18.50
2018-08-11T01:05:52.594Z,18.60
2018-08-11T01:08:20.988Z,18.60
2018-08-11T01:10:49.471Z,18.60
2018-08-11T01:13:17.954Z,18.60
2018-08-11T01:15:46.393Z,18.60
2018-08-11T01:18:14.778Z,18.50
2018-08-11T01:20:43.130Z,18.60
2018-08-11T01:23:11.497Z,18.60
2018-08-11T01:25:39.897Z,18.60
2018-08-11T01:28:08.362Z,18.70
2018-08-11T01:30:36.785Z,18.60
2018-08-11T01:33:05.177Z,18.70
2018-08-11T01:35:33.578Z,18.70
2018-08-11T01:38:02.019Z,18.70
2018-08-11T01:40:30.501Z,18.70
2018-08-11T01:42:59.049Z,18.60
2018-08-11T01:45:27.463Z,18.60
2018-08-11T01:47:55.820Z,18.70
2018-08-11T01:50:24.229Z,18.70
2018-08-11T01:52:52.635Z,18.60
2018-08-11T01:55:21.060Z,18.70
2018-08-11T01:57:49.487Z,18.70
2018-08-11T02:00:20.176Z,18.70
2018-08-11T02:02:48.542Z,18.90
2018-08-11T02:05:16.308Z,18.90
2018-08-11T02:07:45.042Z,18.90
2018-08-11T02:10:17.026Z,19.00
2018-08-11T02:12:46.001Z,18.90
2018-08-11T02:15:14.921Z,19.00
2018-08-11T02:17:43.405Z,19.00
2018-08-11T02:20:14.949Z,19.00
2018-08-11T02:22:44.515Z,19.00
2018-08-11T02:25:12.992Z,18.90
2018-08-11T02:27:41.465Z,19.00
2018-08-11T02:30:12.769Z,18.80
2018-08-11T02:32:41.338Z,18.80
2018-08-11T02:35:11.002Z,18.80
2018-08-11T02:37:39.717Z,18.80
2018-08-11T02:40:10.984Z,18.90
2018-08-11T02:42:39.490Z,19.00
2018-08-11T02:45:10.345Z,19.00
2018-08-11T02:47:38.764Z,19.00
2018-08-11T02:50:09.399Z,19.00
2018-08-11T02:52:38.308Z,18.90
2018-08-11T02:55:06.753Z,19.00
2018-08-11T02:57:35.425Z,19.00
2018-08-11T03:00:05.170Z,18.80
2018-08-11T03:02:33.570Z,18.80
2018-08-11T03:05:05.017Z,18.70
2018-08-11T03:07:33.490Z,18.70
2018-08-11T03:10:01.884Z,18.70
2018-08-11T03:12:30.242Z,18.70
2018-08-11T03:14:58.612Z,18.60
2018-08-11T03:17:26.929Z,18.60
2018-08-11T03:19:55.255Z,18.50
2018-08-11T03:22:23.552Z,18.40
2018-08-11T03:24:51.873Z,18.40
2018-08-11T03:27:20.239Z,18.40
2018-08-11T03:29:48.614Z,18.50
2018-08-11T03:32:16.928Z,18.40
2018-08-11T03:34:45.289Z,18.50
2018-08-11T03:37:13.633Z,18.40
2018-08-11T03:39:41.932Z,18.40
2018-08-11T03:42:10.270Z,18.40
2018-08-11T03:44:38.657Z,18.40
2018-08-11T03:47:07.017Z,18.30
2018-08-11T03:49:35.384Z,18.20
2018-08-11T03:52:03.792Z,18.10
2018-08-11T03:54:32.163Z,18.00
2018-08-11T03:57:00.517Z,18.10
2018-08-11T03:59:28.855Z,18.10
2018-08-11T04:01:57.228Z,18.10
2018-08-11T04:04:25.578Z,18.20
2018-08-11T04:06:53.961Z,18.20
2018-08-11T04:09:22.235Z,18.30
2018-08-11T04:11:50.577Z,18.30
2018-08-11T04:14:18.878Z,18.30
2018-08-11T04:16:47.249Z,18.30
2018-08-11T04:19:15.622Z,18.30
2018-08-11T04:21:43.938Z,18.30
2018-08-11T04:24:12.245Z,18.30
2018-08-11T04:26:40.598Z,18.30
2018-08-11T04:29:09.385Z,18.30
2018-08-11T04:31:37.962Z,18.30
2018-08-11T04:34:06.617Z,18.30
2018-08-11T04:36:35.027Z,18.30
2018-08-11T04:39:05.556Z,18.30
2018-08-11T04:41:33.868Z,18.30
2018-08-11T04:44:02.203Z,18.30
2018-08-11T04:46:30.489Z,18.20
2018-08-11T04:48:58.834Z,18.20
2018-08-11T04:51:27.214Z,18.10
2018-08-11T04:53:55.560Z,18.10
2018-08-11T04:56:23.892Z,17.90
2018-08-11T04:58:52.281Z,18.00
2018-08-11T05:01:20.604Z,17.70
2018-08-11T05:03:48.994Z,17.80
2018-08-11T05:06:17.297Z,17.80
2018-08-11T05:08:45.641Z,17.80
2018-08-11T05:11:14.014Z,17.90
2018-08-11T05:13:42.370Z,18.00
2018-08-11T05:16:10.733Z,17.90
2018-08-11T05:18:39.052Z,17.90
2018-08-11T05:21:07.397Z,17.90
2018-08-11T05:23:35.679Z,18.00
2018-08-11T05:26:04.039Z,18.10
2018-08-11T05:28:32.444Z,18.20
2018-08-11T05:31:00.815Z,18.30
2018-08-11T05:33:29.113Z,18.40
2018-08-11T05:35:57.450Z,18.40
2018-08-11T05:38:25.797Z,18.50
2018-08-11T05:40:54.145Z,18.60
2018-08-11T05:43:22.509Z,18.60
2018-08-11T05:45:50.868Z,18.60
2018-08-11T05:48:19.239Z,18.70
2018-08-11T05:50:47.565Z,18.80
2018-08-11T05:53:15.925Z,18.80
2018-08-11T05:55:44.311Z,18.90
2018-08-11T05:58:12.658Z,19.10
2018-08-11T06:00:40.971Z,19.20
2018-08-11T06:03:09.404Z,19.20
2018-08-11T06:05:37.804Z,19.20
2018-08-11T06:08:06.348Z,19.20
2018-08-11T06:10:34.691Z,19.20
2018-08-11T06:13:03.084Z,19.30
2018-08-11T06:15:31.428Z,19.30
2018-08-11T06:17:59.738Z,19.40
2018-08-11T06:20:28.132Z,19.30
2018-08-11T06:22:56.540Z,19.40
2018-08-11T06:25:24.895Z,19.40
2018-08-11T06:27:53.264Z,19.70
2018-08-11T06:30:21.607Z,19.80
2018-08-11T06:32:49.970Z,19.90
2018-08-11T06:35:18.330Z,19.90
2018-08-11T06:37:46.690Z,19.90
2018-08-11T06:40:15.094Z,19.80
2018-08-11T06:42:43.511Z,19.90
2018-08-11T06:45:11.865Z,19.80
2018-08-11T06:47:40.232Z,19.90
2018-08-11T06:50:08.666Z,19.90
2018-08-11T06:52:37.083Z,20.00
2018-08-11T06:55:05.941Z,19.90
2018-08-11T06:57:34.297Z,20.10
2018-08-11T07:00:33.778Z,20.10
2018-08-11T07:03:02.197Z,20.10
2018-08-11T07:05:30.620Z,20.10
2018-08-11T07:07:59.019Z,20.20
2018-08-11T07:10:28.014Z,20.40
2018-08-11T07:12:56.530Z,20.30
2018-08-11T07:15:25.084Z,20.40
2018-08-11T07:17:53.281Z,20.40
2018-08-11T07:20:21.657Z,20.30
2018-08-11T07:22:50.040Z,20.30
2018-08-11T07:25:18.426Z,20.10
2018-08-11T07:27:46.802Z,19.80
2018-08-11T07:30:15.280Z,19.80
2018-08-11T07:32:43.627Z,20.00
2018-08-11T07:35:11.982Z,20.00
2018-08-11T07:37:40.389Z,19.90
2018-08-11T07:40:08.745Z,20.10
2018-08-11T07:42:37.136Z,20.30
2018-08-11T07:45:05.913Z,20.50
2018-08-11T07:47:34.370Z,20.30
2018-08-11T07:50:02.797Z,20.50
2018-08-11T07:52:31.173Z,20.30
2018-08-11T07:54:59.542Z,20.30
2018-08-11T07:57:28.021Z,20.40
2018-08-11T07:59:56.376Z,20.30
2018-08-11T08:02:24.766Z,20.10
2018-08-11T08:04:53.142Z,20.20
2018-08-11T08:07:21.535Z,20.30
2018-08-11T08:09:49.953Z,20.40
2018-08-11T08:12:18.296Z,20.60
2018-08-11T08:14:46.692Z,20.90
2018-08-11T08:17:15.073Z,21.00
2018-08-11T08:19:43.417Z,21.10
2018-08-11T08:22:11.815Z,21.40
2018-08-11T08:24:40.225Z,21.60
2018-08-11T08:27:08.685Z,21.80
2018-08-11T08:29:37.112Z,21.80
2018-08-11T08:32:05.620Z,21.80
2018-08-11T08:34:34.023Z,21.90
2018-08-11T08:37:02.403Z,22.10
2018-08-11T08:39:30.804Z,22.20
2018-08-11T08:41:59.299Z,22.40
2018-08-11T08:44:27.562Z,22.40
2018-08-11T08:46:55.990Z,22.50
2018-08-11T08:49:24.387Z,22.40
2018-08-11T08:51:52.783Z,22.20
2018-08-11T08:54:21.211Z,22.10
2018-08-11T08:56:49.641Z,22.00
2018-08-11T08:59:18.054Z,22.00
2018-08-11T09:01:46.385Z,21.80
2018-08-11T09:04:14.781Z,21.90
2018-08-11T09:06:43.182Z,21.90
2018-08-11T09:09:12.340Z,21.40
2018-08-11T09:11:41.373Z,21.40
2018-08-11T09:14:09.853Z,21.50
2018-08-11T09:16:38.272Z,21.40
2018-08-11T09:19:06.801Z,21.60
2018-08-11T09:21:35.226Z,21.80
2018-08-11T09:24:03.611Z,21.80
2018-08-11T09:26:31.985Z,22.00
2018-08-11T09:29:00.402Z,21.70
2018-08-11T09:31:28.765Z,21.30
2018-08-11T09:33:57.095Z,21.30
2018-08-11T09:36:25.585Z,21.30
2018-08-11T09:38:53.976Z,21.40
2018-08-11T09:41:22.427Z,21.70
2018-08-11T09:43:50.772Z,22.10
2018-08-11T09:46:19.170Z,22.40
2018-08-11T09:48:47.517Z,22.70
2018-08-11T09:51:15.911Z,22.90
2018-08-11T09:53:45.129Z,22.90
2018-08-11T09:56:13.538Z,22.60
2018-08-11T09:58:41.925Z,22.30
2018-08-11T10:01:15.839Z,22.10
2018-08-11T10:03:44.220Z,22.10
2018-08-11T10:06:12.583Z,22.10
2018-08-11T10:08:40.942Z,22.00
2018-08-11T10:11:09.674Z,21.90
2018-08-11T10:13:38.073Z,22.00
2018-08-11T10:16:06.446Z,22.10
2018-08-11T10:18:34.898Z,21.90
2018-08-11T10:21:03.376Z,22.10
2018-08-11T10:23:31.822Z,22.30
2018-08-11T10:26:00.194Z,22.20
2018-08-11T10:28:28.585Z,22.30
2018-08-11T10:30:56.988Z,22.20
2018-08-11T10:33:25.370Z,22.00
2018-08-11T10:35:53.760Z,22.10
2018-08-11T10:38:23.132Z,21.90
2018-08-11T10:40:51.534Z,22.10
2018-08-11T10:43:19.982Z,22.10
2018-08-11T10:45:48.442Z,22.40
2018-08-11T10:48:16.821Z,22.60
2018-08-11T10:50:45.365Z,22.80
2018-08-11T10:53:13.723Z,22.70
2018-08-11T10:55:42.123Z,22.60
2018-08-11T10:58:10.494Z,22.80
2018-08-11T11:00:39.139Z,22.90
2018-08-11T11:03:07.557Z,22.50
2018-08-11T11:05:35.976Z,22.30
2018-08-11T11:08:04.524Z,22.30
2018-08-11T11:10:32.869Z,22.30
2018-08-11T11:13:01.352Z,22.40
2018-08-11T11:15:30.380Z,22.40
2018-08-11T11:17:58.822Z,22.40
2018-08-11T11:20:27.286Z,22.60
2018-08-11T11:22:55.745Z,22.80
2018-08-11T11:25:24.153Z,23.10
2018-08-11T11:27:52.645Z,23.30
2018-08-11T11:30:21.051Z,23.60
2018-08-11T11:32:49.504Z,23.50
2018-08-11T11:35:17.889Z,23.40
2018-08-11T11:37:46.283Z,23.30
2018-08-11T11:40:14.624Z,23.20
2018-08-11T11:42:42.997Z,23.10
2018-08-11T11:45:11.399Z,23.20
2018-08-11T11:47:39.841Z,23.40
2018-08-11T11:50:08.273Z,23.60
2018-08-11T11:52:36.761Z,23.40
2018-08-11T11:55:05.151Z,23.30
2018-08-11T11:57:33.519Z,23.20
2018-08-11T12:00:01.968Z,23.30
2018-08-11T12:02:30.315Z,23.40
2018-08-11T12:04:58.714Z,23.10
2018-08-11T12:07:27.081Z,23.10
2018-08-11T12:09:56.251Z,23.10
2018-08-11T12:12:24.614Z,23.10
2018-08-11T12:14:53.051Z,23.10
2018-08-11T12:17:21.384Z,23.00
2018-08-11T12:19:49.810Z,23.10
2018-08-11T12:22:18.175Z,23.30
2018-08-11T12:24:46.606Z,23.40
2018-08-11T12:27:21.554Z,23.20
2018-08-11T12:29:50.021Z,23.00
2018-08-11T12:32:18.423Z,22.90
2018-08-11T12:34:46.788Z,22.90
2018-08-11T12:37:15.206Z,23.00
2018-08-11T12:39:43.654Z,23.20
2018-08-11T12:42:12.009Z,23.40
2018-08-11T12:44:40.389Z,23.50
2018-08-11T12:47:08.892Z,23.70
2018-08-11T12:49:37.298Z,23.70
2018-08-11T12:52:05.810Z,23.70
2018-08-11T12:54:34.222Z,23.70
2018-08-11T12:57:02.702Z,23.60
2018-08-11T12:59:31.076Z,23.50
2018-08-11T13:01:59.537Z,23.40
2018-08-11T13:04:27.963Z,23.20
2018-08-11T13:06:56.378Z,23.10
2018-08-11T13:09:24.753Z,23.50
2018-08-11T13:11:53.093Z,23.60
2018-08-11T13:14:28.243Z,23.50
2018-08-11T13:16:56.727Z,23.60
2018-08-11T13:19:25.244Z,23.50
2018-08-11T13:21:53.624Z,23.30
2018-08-11T13:24:22.062Z,23.50
2018-08-11T13:26:50.449Z,23.60
2018-08-11T13:29:18.871Z,23.90
2018-08-11T13:31:47.270Z,23.90
2018-08-11T13:34:15.619Z,24.00
2018-08-11T13:36:44.105Z,24.20
2018-08-11T13:39:12.483Z,24.30
2018-08-11T13:41:45.462Z,24.30
2018-08-11T13:44:14.842Z,24.30
2018-08-11T13:46:43.213Z,24.30
2018-08-11T13:49:11.628Z,24.40
2018-08-11T13:51:40.123Z,24.30
2018-08-11T13:54:08.627Z,24.60
2018-08-11T13:56:37.777Z,24.80
2018-08-11T13:59:06.282Z,24.90
2018-08-11T14:01:34.910Z,25.10
2018-08-11T14:04:03.385Z,25.20
2018-08-11T14:06:31.730Z,24.90
2018-08-11T14:09:00.113Z,24.60
2018-08-11T14:11:28.555Z,24.30
2018-08-11T14:13:56.949Z,24.30
2018-08-11T14:16:25.305Z,24.50
2018-08-11T14:18:53.846Z,24.40
2018-08-11T14:21:22.247Z,24.70
2018-08-11T14:23:50.713Z,24.90
2018-08-11T14:26:19.189Z,25.20
2018-08-11T14:28:47.646Z,25.40
2018-08-11T14:31:16.008Z,25.50
2018-08-11T14:33:44.411Z,25.50
2018-08-11T14:36:12.799Z,25.40
2018-08-11T14:38:41.271Z,25.20
2018-08-11T14:41:09.540Z,24.90
2018-08-11T14:43:37.932Z,24.60
2018-08-11T14:46:07.241Z,24.50
2018-08-11T14:48:35.605Z,24.50
2018-08-11T14:51:04.153Z,24.70
2018-08-11T14:53:32.499Z,24.90
2018-08-11T14:56:00.984Z,25.20
2018-08-11T14:58:29.362Z,24.80
2018-08-11T15:00:57.806Z,24.70
2018-08-11T15:03:26.181Z,24.80
2018-08-11T15:05:54.651Z,24.80
2018-08-11T15:08:22.993Z,25.10
2018-08-11T15:10:51.474Z,25.70
2018-08-11T15:13:19.933Z,26.20
2018-08-11T15:15:48.985Z,26.50
2018-08-11T15:18:17.433Z,26.50
2018-08-11T15:20:45.891Z,26.70
2018-08-11T15:23:14.304Z,27.40
2018-08-11T15:25:42.698Z,27.50
2018-08-11T15:28:11.070Z,27.60
2018-08-11T15:30:39.496Z,26.90
2018-08-11T15:33:07.906Z,26.30
2018-08-11T15:35:36.280Z,26.20
2018-08-11T15:38:04.707Z,26.40
2018-08-11T15:40:33.815Z,26.30
2018-08-11T15:43:02.272Z,25.90
2018-08-11T15:45:30.655Z,25.30
2018-08-11T15:47:59.049Z,25.50
2018-08-11T15:50:27.458Z,25.60
2018-08-11T15:52:55.892Z,26.00
2018-08-11T15:55:24.319Z,25.70
2018-08-11T15:57:52.705Z,26.00
2018-08-11T16:00:21.670Z,26.40
2018-08-11T16:02:50.031Z,25.80
2018-08-11T16:05:18.484Z,26.20
2018-08-11T16:07:47.589Z,26.50
2018-08-11T16:10:15.978Z,25.80
2018-08-11T16:12:44.422Z,25.60
2018-08-11T16:15:12.822Z,25.60
2018-08-11T16:17:41.146Z,25.50
2018-08-11T16:20:09.594Z,25.10
2018-08-11T16:22:37.982Z,25.10
2018-08-11T16:25:06.465Z,25.20
2018-08-11T16:27:34.967Z,25.10
2018-08-11T16:30:03.659Z,25.00
2018-08-11T16:32:31.987Z,24.70
2018-08-11T16:35:00.341Z,24.50
2018-08-11T16:37:28.770Z,24.30
2018-08-11T16:39:57.136Z,24.30
2018-08-11T16:42:25.528Z,24.40
2018-08-11T16:44:53.901Z,24.50
2018-08-11T16:47:22.266Z,24.50
2018-08-11T16:49:50.727Z,24.40
2018-08-11T16:52:19.117Z,24.40
2018-08-11T16:54:47.547Z,24.40
2018-08-11T16:57:15.901Z,24.40
2018-08-11T16:59:44.262Z,24.40
2018-08-11T17:02:12.674Z,24.50
2018-08-11T17:04:41.047Z,24.60
2018-08-11T17:07:09.464Z,24.60
2018-08-11T17:09:37.870Z,24.60
2018-08-11T17:12:06.454Z,24.30
2018-08-11T17:14:34.863Z,24.10
2018-08-11T17:17:03.386Z,24.10
2018-08-11T17:19:31.731Z,24.10
2018-08-11T17:22:00.119Z,24.10
2018-08-11T17:24:28.485Z,23.90
2018-08-11T17:26:56.880Z,23.80
2018-08-11T17:29:25.272Z,23.90
2018-08-11T17:31:53.778Z,23.90
2018-08-11T17:34:22.153Z,23.70
2018-08-11T17:36:50.555Z,23.70
2018-08-11T17:39:18.973Z,23.70
2018-08-11T17:41:47.334Z,23.60
2018-08-11T17:44:15.713Z,23.60
2018-08-11T17:46:44.061Z,23.50
2018-08-11T17:49:12.466Z,23.50
2018-08-11T17:51:40.864Z,23.60
2018-08-11T17:54:09.252Z,23.50
2018-08-11T17:56:37.693Z,23.50
2018-08-11T17:59:06.253Z,23.50
2018-08-11T18:01:34.675Z,23.40
2018-08-11T18:04:03.188Z,23.40
2018-08-11T18:06:31.575Z,23.40
2018-08-11T18:09:00.025Z,23.30
2018-08-11T18:11:28.450Z,23.20
2018-08-11T18:13:56.905Z,23.10
2018-08-11T18:16:25.285Z,23.10
2018-08-11T18:18:53.757Z,23.00
2018-08-11T18:21:22.125Z,23.00
2018-08-11T18:23:50.541Z,23.00
2018-08-11T18:26:18.937Z,22.90
2018-08-11T18:28:47.398Z,22.90
2018-08-11T18:31:15.925Z,22.90
2018-08-11T18:33:44.255Z,22.90
2018-08-11T18:36:12.634Z,22.90
2018-08-11T18:38:40.991Z,22.80
2018-08-11T18:41:09.404Z,22.80
2018-08-11T18:43:37.825Z,22.80
2018-08-11T18:46:07.122Z,22.60
2018-08-11T18:48:35.467Z,22.60
2018-08-11T18:51:03.925Z,22.60
2018-08-11T18:53:32.287Z,22.60
2018-08-11T18:56:00.818Z,22.70
2018-08-11T18:58:29.469Z,22.70
2018-08-11T19:00:57.992Z,22.60
2018-08-11T19:03:26.457Z,22.60
2018-08-11T19:05:54.892Z,22.50
2018-08-11T19:08:23.378Z,22.50
2018-08-11T19:10:51.866Z,22.50
2018-08-11T19:13:20.445Z,22.40
2018-08-11T19:15:48.858Z,22.20
2018-08-11T19:18:17.501Z,22.20
2018-08-11T19:20:46.030Z,22.10
2018-08-11T19:23:14.489Z,22.10
2018-08-11T19:25:43.001Z,22.00
2018-08-11T19:28:11.398Z,22.00
2018-08-11T19:30:39.831Z,21.90
2018-08-11T19:33:08.293Z,22.00
2018-08-11T19:35:36.685Z,22.10
2018-08-11T19:38:05.266Z,22.00
2018-08-11T19:40:33.655Z,21.80
2018-08-11T19:43:02.081Z,21.70
2018-08-11T19:45:30.566Z,21.70
2018-08-11T19:47:59.003Z,21.80
2018-08-11T19:50:27.490Z,21.80
2018-08-11T19:52:55.900Z,21.80
2018-08-11T19:55:24.349Z,21.80
2018-08-11T19:57:52.762Z,21.80
2018-08-11T20:00:21.224Z,21.70
2018-08-11T20:02:49.706Z,21.70
2018-08-11T20:05:19.063Z,21.70
2018-08-11T20:07:47.491Z,21.60
2018-08-11T20:10:15.911Z,21.40
2018-08-11T20:12:44.399Z,21.30
2018-08-11T20:15:12.725Z,21.30
2018-08-11T20:17:41.199Z,21.30
2018-08-11T20:20:10.371Z,21.30
2018-08-11T20:22:38.804Z,21.30
2018-08-11T20:25:07.442Z,21.30
2018-08-11T20:27:35.919Z,21.10
2018-08-11T20:30:06.058Z,20.90
2018-08-11T20:32:34.505Z,20.80
2018-08-11T20:35:03.011Z,20.80
2018-08-11T20:37:31.426Z,20.70
2018-08-11T20:39:59.973Z,20.70
2018-08-11T20:42:28.465Z,20.70
2018-08-11T20:44:56.915Z,20.70
2018-08-11T20:47:25.411Z,20.50
2018-08-11T20:49:53.809Z,20.40
2018-08-11T20:52:22.187Z,20.50
2018-08-11T20:54:50.557Z,20.50
2018-08-11T20:57:19.201Z,20.40
2018-08-11T20:59:47.710Z,20.40
2018-08-11T21:02:16.131Z,20.30
2018-08-11T21:04:44.658Z,20.20
2018-08-11T21:07:13.106Z,20.10
2018-08-11T21:09:41.621Z,20.10
2018-08-11T21:12:10.073Z,20.00
2018-08-11T21:14:38.597Z,20.00
2018-08-11T21:17:07.089Z,19.90
2018-08-11T21:19:35.490Z,20.00
2018-08-11T21:22:04.092Z,19.80
2018-08-11T21:24:32.510Z,19.80
2018-08-11T21:27:01.202Z,19.90
2018-08-11T21:29:29.747Z,19.90
2018-08-11T21:31:58.232Z,19.90
2018-08-11T21:34:26.653Z,19.90
2018-08-11T21:36:55.798Z,19.90
2018-08-11T21:39:24.261Z,19.90
2018-08-11T21:41:52.677Z,19.70
2018-08-11T21:44:21.162Z,19.60
2018-08-11T21:46:49.602Z,19.50
2018-08-11T21:49:18.024Z,19.40
2018-08-11T21:51:46.733Z,19.40
2018-08-11T21:54:15.149Z,19.40
2018-08-11T21:56:43.768Z,19.40
2018-08-11T21:59:12.137Z,19.30
2018-08-11T22:01:40.572Z,19.40
2018-08-11T22:04:09.018Z,19.40
2018-08-11T22:06:37.404Z,19.40
2018-08-11T22:09:10.781Z,19.30
2018-08-11T22:11:39.192Z,19.30
2018-08-11T22:14:08.393Z,19.10
2018-08-11T22:16:37.642Z,19.10
2018-08-11T22:19:06.403Z,19.10
2018-08-11T22:21:34.803Z,19.00
2018-08-11T22:24:03.367Z,18.90
2018-08-11T22:26:31.691Z,18.90
2018-08-11T22:29:00.311Z,19.00
2018-08-11T22:31:28.700Z,18.80
2018-08-11T22:33:57.233Z,18.70
2018-08-11T22:36:25.640Z,18.60
2018-08-11T22:38:54.134Z,18.60
2018-08-11T22:41:22.633Z,18.60
2018-08-11T22:43:51.067Z,18.60
2018-08-11T22:46:19.432Z,18.50
2018-08-11T22:48:47.801Z,18.30
2018-08-11T22:51:16.186Z,18.30
2018-08-11T22:53:44.569Z,18.30
2018-08-11T22:56:13.081Z,18.30
2018-08-11T22:58:41.546Z,18.40
2018-08-11T23:01:10.051Z,18.40
2018-08-11T23:03:38.522Z,18.40
2018-08-11T23:06:07.018Z,18.40
2018-08-11T23:08:35.435Z,18.40
2018-08-11T23:11:03.969Z,18.30
2018-08-11T23:13:32.370Z,18.30
2018-08-11T23:16:00.807Z,18.30
2018-08-11T23:18:29.229Z,18.30
2018-08-11T23:20:57.602Z,18.20
2018-08-11T23:23:26.121Z,18.00
2018-08-11T23:25:54.490Z,18.00
2018-08-11T23:28:22.955Z,18.00
2018-08-11T23:30:51.435Z,18.10
2018-08-11T23:33:19.765Z,18.00
2018-08-11T23:35:48.210Z,18.00
2018-08-11T23:38:16.588Z,18.00
2018-08-11T23:40:45.985Z,18.10
2018-08-11T23:43:14.491Z,18.10
2018-08-11T23:45:42.829Z,18.10
2018-08-11T23:48:11.161Z,17.90
2018-08-11T23:50:39.590Z,17.70
2018-08-11T23:53:08.030Z,17.60
2018-08-11T23:55:36.509Z,17.70
2018-08-11T23:58:05.050Z,17.70
